Time;durP1;ratioP1;P1;durP2;ratioP2;P2;SDS_P1;SDS_P2;PMS_P1;PMS_P2;Temp;Humidity;BMP_temperature;BMP_pressure;BME280_temperature;BME280_humidity;BME280_pressure;Samples;Min_cycle;Max_cycle;Signal;HPM_P1;HPM_P2
2021/06/26 00:00:00;;;;;;;;;;;25.70;45.30;;;;;;1542113;76;1937;-66
2021/06/26 00:02:02;;;;;;;;;;;25.80;45.00;;;;;;1536486;76;778;-66
2021/06/26 00:04:05;;;;;;;;;;;25.70;45.20;;;;;;1530822;76;749;-66
2021/06/26 00:06:07;;;;;;;;;;;25.70;45.00;;;;;;1540884;76;753;-65
2021/06/26 00:08:09;;;;;;;;;;;25.70;44.80;;;;;;1531110;76;818;-63
2021/06/26 00:10:12;;;;;;;;;;;25.80;44.80;;;;;;1537703;76;1136;-65
2021/06/26 00:12:13;;;;;;;;;;;25.70;44.90;;;;;;1535576;76;619;-64
2021/06/26 00:14:16;;;;;;;;;;;25.70;44.80;;;;;;1532370;76;956;-64
2021/06/26 00:16:17;;;;;;;;;;;25.70;45.00;;;;;;1538191;76;743;-65
2021/06/26 00:18:19;;;;;;;;;;;25.70;45.00;;;;;;1531352;76;788;-65
2021/06/26 00:20:21;;;;;;;;;;;25.80;45.00;;;;;;1536208;76;1945;-65
2021/06/26 00:22:23;;;;;;;;;;;25.70;44.70;;;;;;1538823;76;770;-66
2021/06/26 00:24:25;;;;;;;;;;;25.70;44.60;;;;;;1534468;76;786;-67
2021/06/26 00:26:27;;;;;;;;;;;25.70;44.50;;;;;;1536418;76;744;-65
2021/06/26 00:28:29;;;;;;;;;;;25.70;44.70;;;;;;1534283;76;723;-65
2021/06/26 00:30:30;;;;;;;;;;;25.80;44.50;;;;;;1532057;76;1147;-65
2021/06/26 00:32:32;;;;;;;;;;;25.70;44.70;;;;;;1538296;76;966;-68
2021/06/26 00:34:34;;;;;;;;;;;25.70;44.40;;;;;;1534252;76;713;-66
2021/06/26 00:36:36;;;;;;;;;;;25.70;44.50;;;;;;1529972;76;644;-65
2021/06/26 00:38:38;;;;;;;;;;;25.70;44.60;;;;;;1535508;76;677;-68
2021/06/26 00:40:40;;;;;;;;;;;25.70;44.40;;;;;;1528351;76;1955;-66
2021/06/26 00:42:43;;;;;;;;;;;25.70;44.70;;;;;;1534074;76;712;-67
2021/06/26 00:44:45;;;;;;;;;;;25.70;44.40;;;;;;1528606;76;732;-65
2021/06/26 00:46:47;;;;;;;;;;;25.70;44.20;;;;;;1539913;76;760;-67
2021/06/26 00:48:48;;;;;;;;;;;25.70;44.40;;;;;;1537515;76;792;-67
2021/06/26 00:50:50;;;;;;;;;;;25.70;44.40;;;;;;1535423;76;1122;-65
2021/06/26 00:52:52;;;;;;;;;;;25.70;44.10;;;;;;1538500;76;919;-66
2021/06/26 00:54:54;;;;;;;;;;;25.70;44.20;;;;;;1538541;76;756;-65
2021/06/26 00:56:56;;;;;;;;;;;25.70;44.20;;;;;;1540588;76;755;-65
2021/06/26 00:58:58;;;;;;;;;;;25.70;44.00;;;;;;1540434;76;711;-65
2021/06/26 01:01:00;;;;;;;;;;;25.70;43.90;;;;;;1537358;76;1944;-67
2021/06/26 01:03:02;;;;;;;;;;;25.70;44.20;;;;;;1536968;76;811;-66
2021/06/26 01:05:04;;;;;;;;;;;25.70;44.10;;;;;;1530118;76;818;-65
2021/06/26 01:07:06;;;;;;;;;;;25.70;43.90;;;;;;1528873;76;714;-64
2021/06/26 01:09:08;;;;;;;;;;;25.70;44.10;;;;;;1521304;76;1145;-66
2021/06/26 01:11:10;;;;;;;;;;;25.70;44.40;;;;;;1542420;76;791;-63
2021/06/26 01:13:12;;;;;;;;;;;25.70;44.50;;;;;;1534579;76;759;-64
2021/06/26 01:15:15;;;;;;;;;;;25.70;44.20;;;;;;1533058;76;821;-65
2021/06/26 01:17:16;;;;;;;;;;;25.70;43.90;;;;;;1538020;76;808;-65
2021/06/26 01:19:18;;;;;;;;;;;25.70;44.00;;;;;;1540510;76;1186;-67
2021/06/26 01:21:20;;;;;;;;;;;25.80;43.90;;;;;;1528056;76;1936;-62
2021/06/26 01:23:24;;;;;;;;;;;25.70;44.50;;;;;;1534455;76;759;-64
2021/06/26 01:25:26;;;;;;;;;;;25.80;44.50;;;;;;1537595;76;1681;-66
2021/06/26 01:27:28;;;;;;;;;;;25.70;44.20;;;;;;1536752;76;745;-63
2021/06/26 01:29:30;;;;;;;;;;;25.70;44.00;;;;;;1540386;76;1142;-63
2021/06/26 01:31:32;;;;;;;;;;;25.70;43.90;;;;;;1542336;76;761;-65
2021/06/26 01:33:34;;;;;;;;;;;25.70;44.00;;;;;;1532491;76;713;-64
2021/06/26 01:35:36;;;;;;;;;;;25.70;44.10;;;;;;1534317;76;687;-68
2021/06/26 01:37:38;;;;;;;;;;;25.70;44.00;;;;;;1540015;76;788;-67
2021/06/26 01:39:40;;;;;;;;;;;25.70;44.10;;;;;;1538062;76;1150;-65
2021/06/26 01:41:42;;;;;;;;;;;25.70;43.90;;;;;;1534176;76;1937;-66
2021/06/26 01:43:44;;;;;;;;;;;25.70;44.10;;;;;;1542397;76;738;-64
2021/06/26 01:45:46;;;;;;;;;;;25.80;44.00;;;;;;1535283;76;751;-65
2021/06/26 01:47:51;;;;;;;;;;;25.70;44.00;;;;;;1539430;76;770;-65
2021/06/26 01:49:53;;;;;;;;;;;25.70;44.00;;;;;;1544896;76;1145;-63
2021/06/26 01:51:55;;;;;;;;;;;25.80;44.20;;;;;;1539540;76;803;-63
2021/06/26 01:53:57;;;;;;;;;;;25.70;43.70;;;;;;1531850;76;743;-64
2021/06/26 01:55:59;;;;;;;;;;;25.70;43.80;;;;;;1535395;76;809;-64
2021/06/26 01:58:01;;;;;;;;;;;25.70;43.90;;;;;;1531632;76;779;-66
2021/06/26 02:00:04;;;;;;;;;;;25.70;43.70;;;;;;1542593;76;1146;-65
2021/06/26 02:02:06;;;;;;;;;;;25.70;43.50;;;;;;1524366;76;1935;-65
2021/06/26 02:04:08;;;;;;;;;;;25.70;43.60;;;;;;1503829;77;722;-65
2021/06/26 02:06:10;;;;;;;;;;;25.70;43.60;;;;;;1475127;79;747;-65
2021/06/26 02:08:11;;;;;;;;;;;25.70;43.60;;;;;;1466557;79;712;-66
2021/06/26 02:10:14;;;;;;;;;;;25.70;43.90;;;;;;1474215;79;1139;-63
2021/06/26 02:12:16;;;;;;;;;;;25.70;43.40;;;;;;1475734;79;776;-62
2021/06/26 02:14:18;;;;;;;;;;;25.70;43.60;;;;;;1532154;76;739;-66
2021/06/26 02:16:20;;;;;;;;;;;25.70;43.40;;;;;;1536847;76;735;-63
2021/06/26 02:18:21;;;;;;;;;;;25.70;43.50;;;;;;1538506;76;742;-63
2021/06/26 02:20:23;;;;;;;;;;;25.70;43.90;;;;;;1541095;76;1939;-65
2021/06/26 02:22:25;;;;;;;;;;;25.70;43.80;;;;;;1542589;76;789;-62
2021/06/26 02:24:27;;;;;;;;;;;25.70;43.80;;;;;;1538162;76;653;-65
2021/06/26 02:26:29;;;;;;;;;;;25.60;44.00;;;;;;1533622;76;841;-65
2021/06/26 02:28:31;;;;;;;;;;;25.60;44.20;;;;;;1527116;76;744;-66
2021/06/26 02:30:33;;;;;;;;;;;25.70;44.30;;;;;;1545154;76;1208;-67
2021/06/26 02:32:35;;;;;;;;;;;25.70;44.10;;;;;;1548481;76;736;-62
2021/06/26 02:34:37;;;;;;;;;;;25.60;44.20;;;;;;1527023;76;759;-65
2021/06/26 02:36:39;;;;;;;;;;;25.70;44.20;;;;;;1523736;76;744;-66
2021/06/26 02:38:40;;;;;;;;;;;25.70;44.30;;;;;;1545108;76;782;-69
2021/06/26 02:40:42;;;;;;;;;;;25.60;44.20;;;;;;1533529;76;1936;-66
2021/06/26 02:42:44;;;;;;;;;;;25.60;44.20;;;;;;1537402;76;776;-68
2021/06/26 02:44:46;;;;;;;;;;;25.60;44.30;;;;;;1545460;76;851;-66
2021/06/26 02:46:50;;;;;;;;;;;25.60;44.40;;;;;;1546776;76;807;-66
2021/06/26 02:48:52;;;;;;;;;;;25.60;44.00;;;;;;1528125;76;783;-65
2021/06/26 02:50:54;;;;;;;;;;;25.60;44.00;;;;;;1534273;76;1109;-65
2021/06/26 02:52:55;;;;;;;;;;;25.70;44.10;;;;;;1537963;76;786;-66
2021/06/26 02:54:58;;;;;;;;;;;25.60;44.10;;;;;;1532667;76;781;-67
2021/06/26 02:57:00;;;;;;;;;;;25.70;44.20;;;;;;1547096;76;802;-69
2021/06/26 02:59:02;;;;;;;;;;;25.60;44.10;;;;;;1541127;76;711;-65
2021/06/26 03:01:04;;;;;;;;;;;25.50;44.20;;;;;;1545750;76;1946;-66
2021/06/26 03:03:06;;;;;;;;;;;25.60;44.60;;;;;;1532099;76;667;-66
2021/06/26 03:05:08;;;;;;;;;;;25.60;44.20;;;;;;1539934;76;728;-66
2021/06/26 03:07:10;;;;;;;;;;;25.60;44.30;;;;;;1535817;76;841;-65
2021/06/26 03:09:12;;;;;;;;;;;25.60;44.60;;;;;;1529998;76;1115;-63
2021/06/26 03:11:14;;;;;;;;;;;25.70;44.40;;;;;;1538630;76;790;-64
2021/06/26 03:13:16;;;;;;;;;;;25.60;44.20;;;;;;1532572;76;802;-63
2021/06/26 03:15:18;;;;;;;;;;;25.60;44.10;;;;;;1536270;76;810;-67
2021/06/26 03:17:19;;;;;;;;;;;25.60;44.20;;;;;;1536195;76;805;-64
2021/06/26 03:19:21;;;;;;;;;;;25.60;44.20;;;;;;1527719;76;1151;-65
2021/06/26 03:21:23;;;;;;;;;;;25.60;44.20;;;;;;1534775;76;1953;-64
2021/06/26 03:23:25;;;;;;;;;;;25.60;44.20;;;;;;1531067;76;780;-64
2021/06/26 03:25:27;;;;;;;;;;;25.60;44.10;;;;;;1539024;76;908;-64
2021/06/26 03:27:29;;;;;;;;;;;25.60;44.00;;;;;;1542223;76;716;-64
2021/06/26 03:29:31;;;;;;;;;;;25.60;44.20;;;;;;1545359;76;1115;-64
2021/06/26 03:31:33;;;;;;;;;;;25.60;44.10;;;;;;1526893;76;716;-67
2021/06/26 03:33:35;;;;;;;;;;;25.70;44.10;;;;;;1539148;76;765;-66
2021/06/26 03:35:36;;;;;;;;;;;25.50;44.10;;;;;;1527441;76;760;-64
2021/06/26 03:37:38;;;;;;;;;;;25.50;44.20;;;;;;1543086;76;795;-64
2021/06/26 03:39:40;;;;;;;;;;;25.60;44.30;;;;;;1518390;76;1148;-65
2021/06/26 03:41:42;;;;;;;;;;;25.60;44.20;;;;;;1529219;76;1943;-63
2021/06/26 03:43:44;;;;;;;;;;;25.50;44.20;;;;;;1536793;76;762;-63
2021/06/26 03:45:46;;;;;;;;;;;25.60;44.60;;;;;;1536488;76;807;-64
2021/06/26 03:47:48;;;;;;;;;;;25.60;44.70;;;;;;1534730;76;741;-66
2021/06/26 03:49:50;;;;;;;;;;;25.60;44.50;;;;;;1522048;76;1131;-66
2021/06/26 03:51:51;;;;;;;;;;;25.60;44.60;;;;;;1537816;76;711;-64
2021/06/26 03:53:54;;;;;;;;;;;25.50;44.60;;;;;;1544994;76;721;-63
2021/06/26 03:55:56;;;;;;;;;;;25.60;44.40;;;;;;1544652;76;728;-63
2021/06/26 03:57:58;;;;;;;;;;;25.50;44.40;;;;;;1531563;76;781;-63
2021/06/26 03:59:59;;;;;;;;;;;25.60;44.40;;;;;;1539039;76;1138;-63
2021/06/26 04:02:06;;;;;;;;;;;25.60;44.70;;;;;;1527402;76;1922;-63
2021/06/26 04:04:05;;;;;;;;;;;25.60;44.70;;;;;;1537777;76;1512;-64
2021/06/26 04:06:07;;;;;;;;;;;25.60;44.70;;;;;;1528929;76;736;-64
2021/06/26 04:08:09;;;;;;;;;;;25.60;44.80;;;;;;1537329;76;787;-62
2021/06/26 04:10:11;;;;;;;;;;;25.60;45.00;;;;;;1536655;76;1156;-66
2021/06/26 04:12:13;;;;;;;;;;;25.70;44.50;;;;;;1535877;76;843;-63
2021/06/26 04:14:15;;;;;;;;;;;25.60;44.60;;;;;;1533872;76;811;-67
2021/06/26 04:16:17;;;;;;;;;;;25.60;44.80;;;;;;1523638;76;792;-64
2021/06/26 04:18:19;;;;;;;;;;;25.60;44.20;;;;;;1544026;76;931;-65
2021/06/26 04:20:21;;;;;;;;;;;25.60;44.10;;;;;;1538023;76;1152;-64
2021/06/26 04:22:22;;;;;;;;;;;25.60;44.60;;;;;;1531415;76;1964;-64
2021/06/26 04:24:24;;;;;;;;;;;25.60;44.50;;;;;;1545062;76;756;-66
2021/06/26 04:26:26;;;;;;;;;;;25.50;44.20;;;;;;1520842;76;768;-66
2021/06/26 04:28:28;;;;;;;;;;;25.50;44.20;;;;;;1528880;76;719;-66
2021/06/26 04:30:30;;;;;;;;;;;25.60;44.40;;;;;;1523352;76;1117;-63
2021/06/26 04:32:34;;;;;;;;;;;25.60;44.50;;;;;;1529043;76;729;-65
2021/06/26 04:34:35;;;;;;;;;;;25.60;44.70;;;;;;1524316;76;819;-64
2021/06/26 04:36:37;;;;;;;;;;;25.60;44.50;;;;;;1522654;76;722;-66
2021/06/26 04:38:39;;;;;;;;;;;25.60;44.20;;;;;;1525183;76;722;-64
2021/06/26 04:40:41;;;;;;;;;;;25.60;44.30;;;;;;1531547;76;1176;-66
2021/06/26 04:42:44;;;;;;;;;;;25.70;44.40;;;;;;1523565;76;1945;-63
2021/06/26 04:44:46;;;;;;;;;;;25.60;44.40;;;;;;1531440;76;702;-64
2021/06/26 04:46:48;;;;;;;;;;;25.60;44.40;;;;;;1515564;76;734;-64
2021/06/26 04:48:50;;;;;;;;;;;25.70;44.50;;;;;;1516585;76;1066;-65
2021/06/26 04:50:52;;;;;;;;;;;25.60;44.80;;;;;;1535147;76;1108;-66
2021/06/26 04:52:54;;;;;;;;;;;25.60;45.30;;;;;;1535248;76;746;-67
2021/06/26 04:54:56;;;;;;;;;;;25.50;45.20;;;;;;1529632;76;765;-69
2021/06/26 04:56:58;;;;;;;;;;;25.50;45.10;;;;;;1526300;76;697;-69
2021/06/26 04:59:00;;;;;;;;;;;25.60;45.20;;;;;;1524592;76;735;-66
2021/06/26 05:01:02;;;;;;;;;;;25.60;45.00;;;;;;1526601;76;1113;-65
2021/06/26 05:03:03;;;;;;;;;;;25.60;45.10;;;;;;1536808;76;1947;-67
2021/06/26 05:05:06;;;;;;;;;;;25.60;45.10;;;;;;1543293;76;780;-66
2021/06/26 05:07:08;;;;;;;;;;;25.50;45.20;;;;;;1526508;76;699;-67
2021/06/26 05:09:09;;;;;;;;;;;25.50;45.20;;;;;;1530060;76;1179;-64
2021/06/26 05:11:11;;;;;;;;;;;25.50;45.40;;;;;;1576051;72;2133;-73
2021/06/26 05:13:13;;;;;;;;;;;25.50;45.70;;;;;;1551473;75;665;-73
2021/06/26 05:15:15;;;;;;;;;;;25.50;45.70;;;;;;1551318;75;723;-73
2021/06/26 05:17:17;;;;;;;;;;;25.50;45.70;;;;;;1551926;75;742;-74
2021/06/26 05:19:19;;;;;;;;;;;25.70;45.50;;;;;;1542409;75;737;-75
2021/06/26 05:21:21;;;;;;;;;;;25.70;45.40;;;;;;1552345;75;1157;-72
2021/06/26 05:23:23;;;;;;;;;;;25.60;45.40;;;;;;1554842;75;1987;-74
2021/06/26 05:25:25;;;;;;;;;;;25.60;45.40;;;;;;1546145;75;757;-72
2021/06/26 05:27:27;;;;;;;;;;;25.60;45.40;;;;;;1541281;75;656;-74
2021/06/26 05:29:28;;;;;;;;;;;25.60;45.40;;;;;;1553917;75;731;-74
2021/06/26 05:31:30;;;;;;;;;;;25.70;45.40;;;;;;1546916;75;1067;-74
2021/06/26 05:33:32;;;;;;;;;;;25.70;45.40;;;;;;1554050;75;767;-73
2021/06/26 05:35:34;;;;;;;;;;;25.60;45.40;;;;;;1544984;76;732;-74
2021/06/26 05:37:36;;;;;;;;;;;25.70;45.50;;;;;;1552332;75;766;-75
2021/06/26 05:39:38;;;;;;;;;;;25.70;45.50;;;;;;1554027;75;1158;-74
2021/06/26 05:41:40;;;;;;;;;;;25.70;45.50;;;;;;1549002;75;1912;-73
2021/06/26 05:43:42;;;;;;;;;;;25.70;45.60;;;;;;1552888;75;704;-74
2021/06/26 05:45:44;;;;;;;;;;;25.70;45.70;;;;;;1541985;75;712;-72
2021/06/26 05:47:45;;;;;;;;;;;25.70;45.80;;;;;;1559051;75;718;-71
2021/06/26 05:49:48;;;;;;;;;;;25.70;45.90;;;;;;1556838;75;1142;-72
2021/06/26 05:51:50;;;;;;;;;;;25.70;45.90;;;;;;1540597;75;922;-71
2021/06/26 05:53:52;;;;;;;;;;;25.70;45.90;;;;;;1549468;75;737;-71
2021/06/26 05:55:57;;;;;;;;;;;25.70;45.90;;;;;;1561144;75;720;-72
2021/06/26 05:57:59;;;;;;;;;;;25.60;45.80;;;;;;1545974;75;592;-71
2021/06/26 06:00:01;;;;;;;;;;;25.70;45.80;;;;;;1545650;75;1141;-72
2021/06/26 06:02:03;;;;;;;;;;;25.70;45.90;;;;;;1554435;75;1936;-72
2021/06/26 06:04:08;;;;;;;;;;;25.70;45.90;;;;;;1540291;75;734;-72
2021/06/26 06:06:10;;;;;;;;;;;25.70;45.90;;;;;;1547880;75;728;-73
2021/06/26 06:08:12;;;;;;;;;;;25.70;45.90;;;;;;1548295;75;716;-68
2021/06/26 06:10:14;;;;;;;;;;;25.70;45.90;;;;;;1546457;75;1125;-71
2021/06/26 06:12:16;;;;;;;;;;;25.80;45.90;;;;;;1554359;75;702;-71
2021/06/26 06:14:18;;;;;;;;;;;25.70;46.00;;;;;;1568772;75;726;-72
2021/06/26 06:16:20;;;;;;;;;;;25.70;45.90;;;;;;1537692;75;777;-72
2021/06/26 06:18:22;;;;;;;;;;;25.70;45.90;;;;;;1573564;74;696;-73
2021/06/26 06:20:24;;;;;;;;;;;25.80;45.80;;;;;;1556301;75;1169;-73
2021/06/26 06:22:25;;;;;;;;;;;25.80;45.90;;;;;;1546498;76;1929;-73
2021/06/26 06:24:27;;;;;;;;;;;25.70;45.90;;;;;;1564713;75;875;-73
2021/06/26 06:26:29;;;;;;;;;;;25.80;45.90;;;;;;1568188;74;791;-74
2021/06/26 06:28:31;;;;;;;;;;;25.70;45.80;;;;;;1552774;75;738;-72
2021/06/26 06:30:35;;;;;;;;;;;25.80;45.80;;;;;;1575599;74;1154;-74
2021/06/26 06:32:37;;;;;;;;;;;25.70;45.90;;;;;;1574422;74;704;-74
2021/06/26 06:34:39;;;;;;;;;;;25.70;45.90;;;;;;1582478;74;723;-73
2021/06/26 06:36:41;;;;;;;;;;;25.80;46.00;;;;;;1535027;75;633;-75
2021/06/26 06:38:43;;;;;;;;;;;25.80;46.00;;;;;;1550830;76;705;-75
2021/06/26 06:40:44;;;;;;;;;;;25.80;46.00;;;;;;1542987;75;1155;-75
2021/06/26 06:42:46;;;;;;;;;;;25.80;45.90;;;;;;1578114;74;1923;-75
2021/06/26 06:44:48;;;;;;;;;;;25.80;45.90;;;;;;1570393;74;738;-78
2021/06/26 06:46:50;;;;;;;;;;;25.80;45.90;;;;;;1543182;75;729;-78
2021/06/26 06:48:52;;;;;;;;;;;25.80;45.90;;;;;;1529503;75;829;-79
2021/06/26 06:50:54;;;;;;;;;;;25.80;45.80;;;;;;1578471;74;1136;-76
2021/06/26 06:53:02;;;;;;;;;;;25.80;45.80;;;;;;1578798;74;772;-79
2021/06/26 06:54:59;;;;;;;;;;;25.90;45.80;;;;;;1550238;75;1045;-77
2021/06/26 06:57:01;;;;;;;;;;;25.90;45.80;;;;;;1536637;76;729;-79
2021/06/26 06:59:03;;;;;;;;;;;25.80;45.70;;;;;;1581549;74;727;-76
2021/06/26 07:01:05;;;;;;;;;;;25.80;45.70;;;;;;1587093;74;1127;-79
2021/06/26 07:03:07;;;;;;;;;;;25.90;45.80;;;;;;1573758;74;1916;-78
2021/06/26 07:05:09;;;;;;;;;;;25.80;45.80;;;;;;1576424;74;674;-80
2021/06/26 07:07:10;;;;;;;;;;;25.80;45.70;;;;;;1571583;74;726;-80
2021/06/26 07:09:12;;;;;;;;;;;25.90;45.70;;;;;;1570850;74;833;-80
2021/06/26 07:11:14;;;;;;;;;;;25.90;45.70;;;;;;1576558;74;1149;-78
2021/06/26 07:13:16;;;;;;;;;;;25.90;45.70;;;;;;1577438;74;710;-75
2021/06/26 07:15:18;;;;;;;;;;;25.90;45.80;;;;;;1581909;74;745;-73
2021/06/26 07:17:20;;;;;;;;;;;25.90;45.80;;;;;;1581115;74;819;-75
2021/06/26 07:19:22;;;;;;;;;;;25.90;45.80;;;;;;1570155;74;732;-73
2021/06/26 07:21:24;;;;;;;;;;;25.90;45.90;;;;;;1580382;74;1109;-73
2021/06/26 07:23:25;;;;;;;;;;;25.90;45.90;;;;;;1581885;74;1931;-73
2021/06/26 07:25:27;;;;;;;;;;;25.90;45.90;;;;;;1545144;75;785;-74
2021/06/26 07:27:29;;;;;;;;;;;25.90;45.90;;;;;;1531951;76;685;-74
2021/06/26 07:29:31;;;;;;;;;;;25.90;45.90;;;;;;1540170;75;711;-74
2021/06/26 07:31:33;;;;;;;;;;;25.90;45.90;;;;;;1558335;75;1140;-75
2021/06/26 07:33:35;;;;;;;;;;;25.90;45.90;;;;;;1542531;75;692;-74
2021/06/26 07:35:37;;;;;;;;;;;25.90;45.90;;;;;;1550349;75;746;-72
2021/06/26 07:37:39;;;;;;;;;;;25.80;45.70;;;;;;1542893;75;768;-73
2021/06/26 07:39:41;;;;;;;;;;;25.80;45.20;;;;;;1550463;75;1150;-73
2021/06/26 07:41:43;;;;;;;;;;;25.80;45.20;;;;;;1545696;75;716;-73
2021/06/26 07:43:44;;;;;;;;;;;25.70;45.10;;;;;;1548051;75;1939;-73
2021/06/26 07:45:46;;;;;;;;;;;25.80;45.00;;;;;;1551146;75;703;-73
2021/06/26 07:47:48;;;;;;;;;;;25.80;45.10;;;;;;1550137;76;712;-73
2021/06/26 07:49:50;;;;;;;;;;;25.70;45.20;;;;;;1547655;75;1153;-72
2021/06/26 07:51:52;;;;;;;;;;;25.70;45.20;;;;;;1548915;75;787;-72
2021/06/26 07:53:54;;;;;;;;;;;25.70;45.20;;;;;;1550891;75;716;-73
2021/06/26 07:55:56;;;;;;;;;;;25.70;45.30;;;;;;1546186;75;713;-74
2021/06/26 07:57:58;;;;;;;;;;;25.70;45.40;;;;;;1558215;75;716;-73
2021/06/26 07:59:59;;;;;;;;;;;25.70;45.40;;;;;;1560773;75;1143;-70
2021/06/26 08:02:01;;;;;;;;;;;25.60;45.40;;;;;;1548897;76;654;-72
2021/06/26 08:04:03;;;;;;;;;;;25.60;45.20;;;;;;1551121;76;1924;-74
2021/06/26 08:06:05;;;;;;;;;;;25.60;45.20;;;;;;1550155;75;716;-74
2021/06/26 08:08:07;;;;;;;;;;;25.60;45.20;;;;;;1532482;75;805;-73
2021/06/26 08:10:09;;;;;;;;;;;25.60;44.80;;;;;;1552942;76;1166;-73
2021/06/26 08:12:14;;;;;;;;;;;25.50;44.70;;;;;;1542913;76;781;-72
2021/06/26 08:14:15;;;;;;;;;;;25.70;44.70;;;;;;1568724;74;1164;-73
2021/06/26 08:16:17;;;;;;;;;;;25.50;44.70;;;;;;1579186;74;699;-71
2021/06/26 08:18:19;;;;;;;;;;;25.50;44.70;;;;;;1580592;74;781;-73
2021/06/26 08:20:21;;;;;;;;;;;25.50;44.80;;;;;;1582968;74;1185;-74
2021/06/26 08:22:23;;;;;;;;;;;25.50;44.70;;;;;;1552771;76;703;-73
2021/06/26 08:24:25;;;;;;;;;;;25.50;44.70;;;;;;1548708;75;1928;-73
2021/06/26 08:26:26;;;;;;;;;;;25.40;44.70;;;;;;1551000;75;709;-74
2021/06/26 08:28:28;;;;;;;;;;;25.50;44.70;;;;;;1549475;75;735;-73
2021/06/26 08:30:31;;;;;;;;;;;25.40;44.70;;;;;;1553132;75;1224;-73
2021/06/26 08:32:33;;;;;;;;;;;25.50;44.50;;;;;;1554829;76;717;-69
2021/06/26 08:34:35;;;;;;;;;;;25.40;44.60;;;;;;1538501;75;693;-74
2021/06/26 08:36:36;;;;;;;;;;;25.40;44.60;;;;;;1556401;75;720;-74
2021/06/26 08:38:39;;;;;;;;;;;25.40;44.60;;;;;;1550849;75;711;-73
2021/06/26 08:40:41;;;;;;;;;;;25.40;44.70;;;;;;1553014;75;1216;-74
2021/06/26 08:42:43;;;;;;;;;;;25.40;44.70;;;;;;1551037;76;1930;-73
2021/06/26 08:44:46;;;;;;;;;;;25.40;44.60;;;;;;1543586;75;719;-74
2021/06/26 08:46:52;;;;;;;;;;;25.20;43.90;;;;;;1552051;75;696;-74
2021/06/26 08:48:53;;;;;;;;;;;25.10;44.40;;;;;;1551374;75;849;-74
2021/06/26 08:50:55;;;;;;;;;;;24.90;44.70;;;;;;1551420;75;1130;-73
2021/06/26 08:52:57;;;;;;;;;;;24.90;44.60;;;;;;1545680;75;719;-74
2021/06/26 08:54:59;;;;;;;;;;;24.80;44.20;;;;;;1547488;76;746;-74
2021/06/26 08:57:01;;;;;;;;;;;24.80;44.70;;;;;;1548241;75;727;-73
2021/06/26 08:59:03;;;;;;;;;;;24.70;45.10;;;;;;1555892;75;662;-74
2021/06/26 09:01:05;;;;;;;;;;;24.70;44.80;;;;;;1562893;75;1132;-73
2021/06/26 09:03:11;;;;;;;;;;;24.70;44.40;;;;;;1555966;75;1932;-74
2021/06/26 09:05:15;;;;;;;;;;;24.60;44.90;;;;;;1568368;75;732;-74
2021/06/26 09:07:18;;;;;;;;;;;24.70;45.40;;;;;;1537352;75;1144;-73
2021/06/26 09:09:30;;;;;;;;;;;24.70;44.90;;;;;;1545302;75;1009;-74
2021/06/26 09:11:32;;;;;;;;;;;24.70;44.70;;;;;;1554100;75;1085;-74
2021/06/26 09:13:33;;;;;;;;;;;24.70;44.40;;;;;;1553938;76;794;-75
2021/06/26 09:15:35;;;;;;;;;;;24.80;44.40;;;;;;1556102;75;739;-74
2021/06/26 09:17:37;;;;;;;;;;;24.70;44.50;;;;;;1551492;75;731;-74
2021/06/26 09:19:39;;;;;;;;;;;24.60;44.70;;;;;;1553975;75;1194;-74
2021/06/26 09:21:43;;;;;;;;;;;24.60;44.70;;;;;;1557854;75;657;-71
2021/06/26 09:23:45;;;;;;;;;;;24.60;44.80;;;;;;1550767;75;1911;-74
2021/06/26 09:25:47;;;;;;;;;;;24.70;44.90;;;;;;1549805;75;679;-74
2021/06/26 09:27:49;;;;;;;;;;;24.70;44.60;;;;;;1556677;75;682;-75
2021/06/26 09:29:51;;;;;;;;;;;24.60;44.30;;;;;;1554139;75;1185;-75
2021/06/26 09:31:57;;;;;;;;;;;24.50;44.20;;;;;;1555707;75;728;-74
2021/06/26 09:34:00;;;;;;;;;;;24.50;44.50;;;;;;1548272;75;716;-73
2021/06/26 09:36:05;;;;;;;;;;;24.50;44.90;;;;;;1546905;75;717;-75
2021/06/26 09:38:07;;;;;;;;;;;24.50;44.50;;;;;;1565393;75;613;-75
2021/06/26 09:40:11;;;;;;;;;;;24.50;44.20;;;;;;1537075;75;1131;-77
2021/06/26 09:42:23;;;;;;;;;;;24.50;44.40;;;;;;1588186;74;941;-74
2021/06/26 09:44:24;;;;;;;;;;;24.50;44.60;;;;;;1578789;74;1931;-75
2021/06/26 09:46:26;;;;;;;;;;;24.60;44.60;;;;;;1580549;74;702;-75
2021/06/26 09:48:28;;;;;;;;;;;24.60;44.70;;;;;;1560211;74;700;-75
2021/06/26 09:50:30;;;;;;;;;;;24.70;45.00;;;;;;1587639;74;1115;-76
2021/06/26 09:52:50;;;;;;;;;;;24.60;45.30;;;;;;1573230;74;751;-77
2021/06/26 09:54:52;;;;;;;;;;;24.60;44.90;;;;;;1529099;75;727;-72
2021/06/26 09:56:54;;;;;;;;;;;24.70;44.80;;;;;;1543030;75;748;-75
2021/06/26 09:58:56;;;;;;;;;;;24.60;44.70;;;;;;1553816;75;717;-76
2021/06/26 10:00:58;;;;;;;;;;;24.50;44.80;;;;;;1552179;75;1150;-75
2021/06/26 10:03:00;;;;;;;;;;;24.50;44.90;;;;;;1552938;75;751;-74
2021/06/26 10:05:01;;;;;;;;;;;24.50;45.30;;;;;;1546810;75;1941;-75
2021/06/26 10:07:03;;;;;;;;;;;24.50;45.10;;;;;;1545490;75;615;-71
2021/06/26 10:09:05;;;;;;;;;;;24.50;45.20;;;;;;1550401;76;650;-71
2021/06/26 10:11:07;;;;;;;;;;;24.50;45.10;;;;;;1544614;75;1214;-73
2021/06/26 10:13:11;;;;;;;;;;;24.50;45.20;;;;;;1545944;75;767;-76
2021/06/26 10:15:13;;;;;;;;;;;24.50;45.60;;;;;;1541566;75;738;-72
2021/06/26 10:17:15;;;;;;;;;;;24.50;45.90;;;;;;1548440;75;742;-77
2021/06/26 10:19:17;;;;;;;;;;;24.50;46.30;;;;;;1553931;75;755;-75
2021/06/26 10:21:19;;;;;;;;;;;24.50;46.10;;;;;;1554440;75;1125;-72
2021/06/26 10:23:21;;;;;;;;;;;24.60;45.80;;;;;;1547331;75;1944;-75
2021/06/26 10:25:25;;;;;;;;;;;24.60;45.50;;;;;;1553619;75;691;-74
2021/06/26 10:27:26;;;;;;;;;;;24.50;45.30;;;;;;1550232;75;1000;-74
2021/06/26 10:29:30;;;;;;;;;;;24.50;45.60;;;;;;1547704;75;645;-75
2021/06/26 10:31:39;;;;;;;;;;;24.50;45.50;;;;;;1546825;75;1127;-74
2021/06/26 10:33:41;;;;;;;;;;;24.50;45.50;;;;;;1580896;74;737;-75
2021/06/26 10:35:52;;;;;;;;;;;24.50;45.20;;;;;;1584097;74;728;-76
2021/06/26 10:38:01;;;;;;;;;;;24.50;45.40;;;;;;1579077;74;743;-73
2021/06/26 10:40:06;;;;;;;;;;;24.60;45.40;;;;;;1581721;74;1147;-75
2021/06/26 10:42:09;;;;;;;;;;;24.70;45.20;;;;;;1581353;74;714;-75
2021/06/26 10:44:11;;;;;;;;;;;24.70;45.10;;;;;;1578906;74;1949;-74
2021/06/26 10:46:13;;;;;;;;;;;24.70;44.80;;;;;;1580605;75;731;-75
2021/06/26 10:48:16;;;;;;;;;;;24.60;44.70;;;;;;1566032;74;709;-74
2021/06/26 10:50:19;;;;;;;;;;;24.70;44.90;;;;;;1573673;74;1157;-75
2021/06/26 10:52:21;;;;;;;;;;;24.60;44.10;;;;;;1584006;74;733;-75
2021/06/26 10:54:22;;;;;;;;;;;24.60;44.40;;;;;;1575974;74;774;-75
2021/06/26 10:56:26;;;;;;;;;;;24.60;44.30;;;;;;1570566;74;743;-77
2021/06/26 10:58:29;;;;;;;;;;;24.60;44.80;;;;;;1579869;74;1162;-74
2021/06/26 11:00:33;;;;;;;;;;;24.50;44.30;;;;;;1536952;76;1113;-74
2021/06/26 11:02:39;;;;;;;;;;;24.50;44.20;;;;;;1542064;75;682;-75
2021/06/26 11:04:42;;;;;;;;;;;24.50;44.60;;;;;;1575391;74;1921;-75
2021/06/26 11:06:44;;;;;;;;;;;24.50;44.70;;;;;;1581594;74;937;-74
2021/06/26 11:08:47;;;;;;;;;;;24.50;44.40;;;;;;1582694;74;702;-75
2021/06/26 11:10:53;;;;;;;;;;;24.50;44.10;;;;;;1554710;73;220081;-62
2021/06/26 11:12:55;;;;;;;;;;;24.40;44.30;;;;;;1532603;76;731;-63
2021/06/26 11:14:57;;;;;;;;;;;24.50;44.40;;;;;;1525972;76;732;-64
2021/06/26 11:16:59;;;;;;;;;;;24.50;44.00;;;;;;1508181;77;747;-63
2021/06/26 11:19:01;;;;;;;;;;;24.50;44.30;;;;;;1532166;76;699;-64
2021/06/26 11:21:03;;;;;;;;;;;24.50;44.90;;;;;;1517594;76;1223;-63
2021/06/26 11:23:05;;;;;;;;;;;24.50;45.20;;;;;;1508526;77;718;-63
2021/06/26 11:25:09;;;;;;;;;;;24.50;45.40;;;;;;1512019;77;1917;-63
2021/06/26 11:27:14;;;;;;;;;;;24.50;44.80;;;;;;1495468;77;976;-62
2021/06/26 11:29:24;;;;;;;;;;;24.50;44.90;;;;;;1497635;77;893;-63
2021/06/26 11:31:26;;;;;;;;;;;24.50;44.40;;;;;;1511816;77;1945;-62
2021/06/26 11:33:34;;;;;;;;;;;24.50;44.60;;;;;;1505223;77;741;-62
2021/06/26 11:35:37;;;;;;;;;;;24.50;44.60;;;;;;1498784;77;803;-63
2021/06/26 11:37:43;;;;;;;;;;;24.50;44.60;;;;;;1524275;77;684;-63
2021/06/26 11:39:45;;;;;;;;;;;24.50;44.60;;;;;;1489234;78;789;-63
2021/06/26 11:41:47;;;;;;;;;;;24.50;44.10;;;;;;1485500;78;1110;-61
2021/06/26 11:43:49;;;;;;;;;;;24.50;45.00;;;;;;1510119;77;1941;-63
2021/06/26 11:45:51;;;;;;;;;;;24.30;44.80;;;;;;1513357;77;909;-63
2021/06/26 11:48:03;;;;;;;;;;;24.40;44.60;;;;;;1512853;77;733;-62
2021/06/26 11:50:07;;;;;;;;;;;24.40;44.50;;;;;;1506234;77;1151;-63
2021/06/26 11:52:10;;;;;;;;;;;24.30;44.30;;;;;;1511777;77;1838;-62
2021/06/26 11:54:13;;;;;;;;;;;24.40;44.60;;;;;;1509292;77;706;-63
2021/06/26 11:56:15;;;;;;;;;;;24.30;44.70;;;;;;1487471;78;2047;-61
2021/06/26 11:58:18;;;;;;;;;;;24.40;44.10;;;;;;1513608;77;816;-60
2021/06/26 12:00:20;;;;;;;;;;;24.40;44.10;;;;;;1526585;77;1138;-62
2021/06/26 12:02:23;;;;;;;;;;;24.40;44.10;;;;;;1485980;78;767;-62
2021/06/26 12:04:28;;;;;;;;;;;24.40;44.10;;;;;;1486493;78;1945;-63
2021/06/26 12:06:34;;;;;;;;;;;24.40;44.20;;;;;;1488343;79;765;-62
2021/06/26 12:08:55;;;;;;;;;;;24.40;44.50;;;;;;1514408;77;763;-62